createdAt,value
2023-04-09T00:00:06.825Z,3.77
2023-04-09T00:00:18.341Z,3.77
2023-04-09T00:00:49.392Z,3.77
2023-04-09T00:01:33.301Z,3.77
2023-04-09T00:02:05.464Z,3.77
2023-04-09T00:02:37.644Z,3.77
2023-04-09T00:03:09.233Z,3.77
2023-04-09T00:03:41.269Z,3.77
2023-04-09T00:04:13.159Z,3.88
2023-04-09T00:04:45.062Z,3.88
2023-04-09T00:05:01.683Z,3.88
2023-04-09T00:05:46.315Z,3.88
2023-04-09T00:06:17.283Z,3.88
2023-04-09T00:06:48.976Z,3.88
2023-04-09T00:07:20.997Z,3.88
2023-04-09T00:07:52.933Z,3.88
2023-04-09T00:08:24.922Z,3.88
2023-04-09T00:08:57.218Z,3.88
2023-04-09T00:09:28.808Z,3.88
2023-04-09T00:10:01.064Z,3.88
2023-04-09T00:10:32.863Z,3.88
2023-04-09T00:11:04.831Z,3.88
2023-04-09T00:11:36.583Z,3.88
2023-04-09T00:12:08.928Z,3.88
2023-04-09T00:12:40.681Z,4.00
2023-04-09T00:13:12.716Z,4.00
2023-04-09T00:13:44.514Z,4.00
2023-04-09T00:14:00.697Z,4.00
2023-04-09T00:14:32.744Z,4.00
2023-04-09T00:14:48.589Z,4.00
2023-04-09T00:15:30.499Z,4.00
2023-04-09T00:15:52.627Z,4.00
2023-04-09T00:16:24.505Z,3.77
2023-04-09T00:16:56.539Z,4.00
2023-04-09T00:17:28.602Z,4.00
2023-04-09T00:18:00.353Z,4.00
2023-04-09T00:18:32.470Z,4.00
2023-04-09T00:19:04.706Z,4.00
2023-04-09T00:19:36.599Z,4.00
2023-04-09T00:20:08.962Z,4.00
2023-04-09T00:20:40.450Z,4.00
2023-04-09T00:21:12.344Z,4.00
2023-04-09T00:21:44.422Z,4.00
2023-04-09T00:22:16.143Z,4.00
2023-04-09T00:22:48.403Z,3.88
2023-04-09T00:23:20.236Z,3.88
2023-04-09T00:23:52.358Z,3.88
2023-04-09T00:24:24.124Z,3.88
2023-04-09T00:24:56.192Z,3.88
2023-04-09T00:25:28.600Z,3.88
2023-04-09T00:26:00.240Z,3.88
2023-04-09T00:26:32.023Z,3.88
2023-04-09T00:26:48.360Z,3.88
2023-04-09T00:27:20.161Z,3.88
2023-04-09T00:28:04.423Z,3.88
2023-04-09T00:28:36.090Z,3.88
2023-04-09T00:29:08.325Z,3.88
2023-04-09T00:29:39.918Z,3.88
2023-04-09T00:30:13.517Z,3.88
2023-04-09T00:30:44.083Z,3.88
2023-04-09T00:31:15.801Z,3.88
2023-04-09T00:31:32.140Z,3.88
2023-04-09T00:32:15.789Z,3.88
2023-04-09T00:32:48.126Z,3.88
2023-04-09T00:33:20.108Z,3.88
2023-04-09T00:33:51.665Z,3.88
2023-04-09T00:34:23.808Z,3.88
2023-04-09T00:34:55.869Z,3.88
2023-04-09T00:35:28.263Z,3.88
2023-04-09T00:35:59.661Z,3.88
2023-04-09T00:36:15.689Z,3.88
2023-04-09T00:36:47.873Z,3.88
2023-04-09T00:37:31.834Z,3.88
2023-04-09T00:38:04.270Z,3.88
2023-04-09T00:38:35.585Z,3.88
2023-04-09T00:39:07.947Z,3.88
2023-04-09T00:39:39.556Z,3.88
2023-04-09T00:40:11.796Z,3.88
2023-04-09T00:40:43.388Z,3.88
2023-04-09T00:41:15.390Z,3.88
2023-04-09T00:41:47.881Z,3.88
2023-04-09T00:42:19.631Z,3.88
2023-04-09T00:42:51.466Z,3.88
2023-04-09T00:43:23.366Z,3.88
2023-04-09T00:43:55.473Z,3.88
2023-04-09T00:44:27.699Z,3.88
2023-04-09T00:44:59.258Z,3.88
2023-04-09T00:45:16.871Z,3.88
2023-04-09T00:45:59.414Z,3.88
2023-04-09T00:46:31.243Z,3.88
2023-04-09T00:47:04.009Z,3.88
2023-04-09T00:47:35.185Z,3.88
2023-04-09T00:48:07.656Z,3.88
2023-04-09T00:48:39.247Z,3.88
2023-04-09T00:49:11.247Z,3.88
2023-04-09T00:49:43.039Z,3.88
2023-04-09T00:50:15.296Z,3.88
2023-04-09T00:50:47.316Z,3.88
2023-04-09T00:51:19.041Z,3.88
2023-04-09T00:51:51.042Z,3.88
2023-04-09T00:52:23.117Z,3.88
2023-04-09T00:52:55.004Z,3.88
2023-04-09T00:53:27.152Z,3.88
2023-04-09T00:53:58.967Z,3.88
2023-04-09T00:54:14.999Z,3.88
2023-04-09T00:54:47.092Z,3.88
2023-04-09T00:55:31.162Z,3.88
2023-04-09T00:56:03.701Z,3.88
2023-04-09T00:56:34.770Z,3.88
2023-04-09T00:57:06.812Z,3.88
2023-04-09T00:57:38.983Z,3.88
2023-04-09T00:58:10.920Z,3.88
2023-04-09T00:58:42.658Z,3.88
2023-04-09T00:58:58.857Z,3.88
2023-04-09T00:59:42.681Z,3.88
2023-04-09T01:00:15.911Z,4.00
2023-04-09T01:00:47.846Z,4.00
2023-04-09T01:01:19.512Z,4.00
2023-04-09T01:01:50.743Z,4.00
2023-04-09T01:02:22.869Z,4.00
2023-04-09T01:02:54.705Z,4.00
2023-04-09T01:03:26.635Z,4.00
2023-04-09T01:03:58.722Z,4.00
2023-04-09T01:04:30.593Z,4.00
2023-04-09T01:05:03.799Z,4.00
2023-04-09T01:05:34.434Z,4.00
2023-04-09T01:06:06.855Z,4.00
2023-04-09T01:06:38.453Z,4.00
2023-04-09T01:07:10.449Z,4.00
2023-04-09T01:07:42.309Z,4.00
2023-04-09T01:07:58.653Z,4.00
2023-04-09T01:08:30.313Z,4.00
2023-04-09T01:08:46.346Z,4.00
2023-04-09T01:09:18.765Z,4.00
2023-04-09T01:09:50.196Z,4.00
2023-04-09T01:10:22.507Z,4.00
2023-04-09T01:10:54.332Z,4.00
2023-04-09T01:11:26.477Z,4.00
2023-04-09T01:11:58.320Z,4.00
2023-04-09T01:12:14.280Z,4.00
2023-04-09T01:12:46.043Z,4.00
2023-04-09T01:13:30.312Z,4.00
2023-04-09T01:14:02.388Z,4.00
2023-04-09T01:14:33.920Z,3.88
2023-04-09T01:15:08.105Z,3.88
2023-04-09T01:15:38.364Z,3.88
2023-04-09T01:16:10.093Z,3.88
2023-04-09T01:16:42.032Z,3.88
2023-04-09T01:17:13.876Z,3.88
2023-04-09T01:17:46.033Z,3.88
2023-04-09T01:18:18.484Z,3.88
2023-04-09T01:18:50.205Z,3.88
2023-04-09T01:19:21.966Z,3.88
2023-04-09T01:19:54.134Z,3.88
2023-04-09T01:20:26.558Z,3.88
2023-04-09T01:20:57.967Z,3.88
2023-04-09T01:21:13.895Z,4.00
2023-04-09T01:21:58.086Z,4.00
2023-04-09T01:22:30.036Z,4.00
2023-04-09T01:23:02.186Z,4.00
2023-04-09T01:23:33.778Z,4.00
2023-04-09T01:24:05.791Z,4.00
2023-04-09T01:24:38.079Z,4.00
2023-04-09T01:25:10.107Z,4.00
2023-04-09T01:25:41.589Z,4.00
2023-04-09T01:26:13.702Z,4.00
2023-04-09T01:26:45.700Z,4.00
2023-04-09T01:27:18.017Z,4.00
2023-04-09T01:27:49.509Z,4.00
2023-04-09T01:28:21.659Z,4.00
2023-04-09T01:28:53.994Z,4.00
2023-04-09T01:29:25.485Z,4.00
2023-04-09T01:29:57.828Z,4.00
2023-04-09T01:30:14.952Z,4.00
2023-04-09T01:30:45.351Z,4.00
2023-04-09T01:31:29.548Z,4.00
2023-04-09T01:32:01.501Z,4.00
2023-04-09T01:32:33.291Z,4.00
2023-04-09T01:33:05.429Z,4.00
2023-04-09T01:33:37.584Z,4.22
2023-04-09T01:34:09.200Z,4.22
2023-04-09T01:34:41.164Z,4.22
2023-04-09T01:34:57.575Z,4.22
2023-04-09T01:35:41.502Z,4.22
2023-04-09T01:36:13.342Z,4.22
2023-04-09T01:36:45.338Z,4.22
2023-04-09T01:37:17.364Z,4.22
2023-04-09T01:37:49.327Z,4.22
2023-04-09T01:38:21.257Z,4.22
2023-04-09T01:38:53.523Z,4.22
2023-04-09T01:39:25.056Z,4.00
2023-04-09T01:39:57.356Z,4.22
2023-04-09T01:40:29.494Z,3.88
2023-04-09T01:41:01.198Z,3.88
2023-04-09T01:41:33.077Z,3.88
2023-04-09T01:42:04.985Z,4.11
2023-04-09T01:42:37.351Z,4.22
2023-04-09T01:43:09.136Z,4.00
2023-04-09T01:43:40.858Z,4.00
2023-04-09T01:43:57.406Z,4.00
2023-04-09T01:44:28.739Z,4.00
2023-04-09T01:44:44.935Z,4.00
2023-04-09T01:45:18.712Z,4.00
2023-04-09T01:45:49.126Z,4.00
2023-04-09T01:46:20.989Z,4.22
2023-04-09T01:46:52.751Z,4.00
2023-04-09T01:47:24.869Z,4.00
2023-04-09T01:47:56.769Z,4.00
2023-04-09T01:48:28.697Z,4.00
2023-04-09T01:49:00.616Z,4.00
2023-04-09T01:49:32.735Z,4.00
2023-04-09T01:50:05.025Z,4.00
2023-04-09T01:50:36.781Z,3.88
2023-04-09T01:51:08.774Z,3.88
2023-04-09T01:51:40.541Z,4.11
2023-04-09T01:52:12.444Z,3.88
2023-04-09T01:52:28.744Z,4.11
2023-04-09T01:53:00.554Z,3.88
2023-04-09T01:53:44.599Z,4.11
2023-04-09T01:54:16.517Z,3.88
2023-04-09T01:54:48.663Z,3.88
2023-04-09T01:55:20.680Z,3.88
2023-04-09T01:55:52.542Z,3.88
2023-04-09T01:56:24.374Z,3.88
2023-04-09T01:56:56.239Z,3.88
2023-04-09T01:57:12.458Z,3.88
2023-04-09T01:57:56.269Z,4.22
2023-04-09T01:58:28.756Z,4.00
2023-04-09T01:59:00.165Z,4.00
2023-04-09T01:59:32.069Z,4.00
2023-04-09T02:00:06.242Z,4.00
2023-04-09T02:00:36.237Z,4.00
2023-04-09T02:01:08.252Z,4.00
2023-04-09T02:01:40.192Z,4.00
2023-04-09T02:01:56.371Z,4.00
2023-04-09T02:02:28.370Z,4.00
2023-04-09T02:02:44.093Z,4.00
2023-04-09T02:03:16.100Z,4.00
2023-04-09T02:03:48.433Z,4.00
2023-04-09T02:04:19.886Z,4.00
2023-04-09T02:04:52.218Z,4.00
2023-04-09T02:05:24.210Z,4.00
2023-04-09T02:05:55.877Z,4.00
2023-04-09T02:06:12.049Z,4.00
2023-04-09T02:06:43.835Z,4.00
2023-04-09T02:07:28.329Z,4.00
2023-04-09T02:07:59.760Z,4.00
2023-04-09T02:08:15.977Z,4.00
2023-04-09T02:08:48.156Z,4.00
2023-04-09T02:09:31.785Z,4.00
2023-04-09T02:10:04.792Z,4.00
2023-04-09T02:10:35.726Z,4.00
2023-04-09T02:11:07.972Z,4.00
2023-04-09T02:11:39.684Z,4.00
2023-04-09T02:12:11.823Z,4.00
2023-04-09T02:12:43.604Z,4.00
2023-04-09T02:13:15.552Z,4.00
2023-04-09T02:13:47.712Z,4.11
2023-04-09T02:14:19.685Z,4.11
2023-04-09T02:14:51.598Z,4.11
2023-04-09T02:15:23.922Z,4.11
2023-04-09T02:15:55.565Z,4.11
2023-04-09T02:16:27.863Z,4.27
2023-04-09T02:16:59.401Z,4.11
2023-04-09T02:17:31.644Z,4.11
2023-04-09T02:18:04.150Z,4.27
2023-04-09T02:18:35.377Z,4.27
2023-04-09T02:19:07.519Z,4.22
2023-04-09T02:19:39.362Z,4.22
2023-04-09T02:20:11.549Z,4.22
2023-04-09T02:20:43.371Z,4.22
2023-04-09T02:21:15.199Z,4.22
2023-04-09T02:21:47.409Z,4.22
2023-04-09T02:22:19.240Z,4.22
2023-04-09T02:22:51.313Z,4.22
2023-04-09T02:23:23.202Z,4.22
2023-04-09T02:23:39.257Z,4.22
2023-04-09T02:24:23.136Z,4.22
2023-04-09T02:24:55.161Z,4.22
2023-04-09T02:25:27.966Z,4.22
2023-04-09T02:25:58.977Z,4.22
2023-04-09T02:26:31.202Z,4.22
2023-04-09T02:27:03.844Z,4.22
2023-04-09T02:27:35.042Z,4.11
2023-04-09T02:28:07.092Z,4.11
2023-04-09T02:28:39.386Z,4.11
2023-04-09T02:28:55.167Z,4.11
2023-04-09T02:29:38.972Z,4.22
2023-04-09T02:30:12.274Z,4.22
2023-04-09T02:30:42.870Z,4.22
2023-04-09T02:31:14.945Z,4.22
2023-04-09T02:31:46.914Z,4.22
2023-04-09T02:32:19.018Z,4.22
2023-04-09T02:32:50.863Z,4.11
2023-04-09T02:33:22.908Z,4.11
2023-04-09T02:33:54.883Z,4.11
2023-04-09T02:34:27.311Z,4.11
2023-04-09T02:34:58.847Z,4.11
2023-04-09T02:35:30.937Z,4.11
2023-04-09T02:36:03.335Z,4.00
2023-04-09T02:36:34.662Z,4.00
2023-04-09T02:37:07.190Z,4.00
2023-04-09T02:37:38.833Z,4.00
2023-04-09T02:37:54.842Z,4.00
2023-04-09T02:38:26.784Z,4.00
2023-04-09T02:38:42.667Z,4.00
2023-04-09T02:39:14.398Z,4.00
2023-04-09T02:39:46.657Z,4.00
2023-04-09T02:40:18.779Z,4.00
2023-04-09T02:40:50.517Z,4.11
2023-04-09T02:41:22.412Z,4.11
2023-04-09T02:41:54.553Z,4.11
2023-04-09T02:42:10.625Z,4.00
2023-04-09T02:42:42.313Z,4.00
2023-04-09T02:43:26.674Z,4.00
2023-04-09T02:43:58.817Z,4.00
2023-04-09T02:44:30.297Z,4.00
2023-04-09T02:45:04.963Z,3.88
2023-04-09T02:45:34.545Z,3.88
2023-04-09T02:46:06.305Z,3.88
2023-04-09T02:46:38.548Z,4.00
2023-04-09T02:46:54.422Z,4.00
2023-04-09T02:47:38.491Z,4.00
2023-04-09T02:48:10.278Z,4.00
2023-04-09T02:48:42.014Z,4.00
2023-04-09T02:49:14.059Z,4.00
2023-04-09T02:49:46.105Z,4.00
2023-04-09T02:50:18.486Z,4.00
2023-04-09T02:50:49.913Z,4.00
2023-04-09T02:51:22.043Z,4.00
2023-04-09T02:51:54.088Z,4.00
2023-04-09T02:52:26.034Z,4.00
2023-04-09T02:52:58.257Z,4.00
2023-04-09T02:53:29.936Z,4.00
2023-04-09T02:54:01.996Z,4.00
2023-04-09T02:54:34.057Z,4.00
2023-04-09T02:55:06.060Z,4.00
2023-04-09T02:55:38.072Z,4.00
2023-04-09T02:55:54.304Z,4.00
2023-04-09T02:56:25.714Z,4.00
2023-04-09T02:56:41.867Z,4.00
2023-04-09T02:57:14.048Z,4.00
2023-04-09T02:57:45.820Z,4.00
2023-04-09T02:58:17.952Z,4.00
2023-04-09T02:58:49.985Z,4.00
2023-04-09T02:59:21.905Z,4.00
2023-04-09T02:59:53.615Z,4.00
2023-04-09T03:00:10.993Z,4.00
2023-04-09T03:00:41.533Z,4.00
2023-04-09T03:01:25.778Z,4.00
2023-04-09T03:01:58.167Z,4.00
2023-04-09T03:02:29.717Z,4.00
2023-04-09T03:03:02.183Z,4.00
2023-04-09T03:03:34.014Z,4.00
2023-04-09T03:04:06.374Z,4.00
2023-04-09T03:04:37.703Z,4.00
2023-04-09T03:04:53.685Z,4.00
2023-04-09T03:05:38.120Z,4.00
2023-04-09T03:06:10.224Z,4.00
2023-04-09T03:06:41.631Z,4.00
2023-04-09T03:07:14.170Z,4.00
2023-04-09T03:07:45.931Z,4.00
2023-04-09T03:08:18.740Z,4.00
2023-04-09T03:08:50.330Z,4.00
2023-04-09T03:09:21.433Z,4.00
2023-04-09T03:09:53.335Z,4.00
2023-04-09T03:10:25.608Z,4.00
2023-04-09T03:10:57.494Z,3.88
2023-04-09T03:11:29.161Z,3.88
2023-04-09T03:12:01.391Z,3.88
2023-04-09T03:12:33.553Z,3.88
2023-04-09T03:13:05.383Z,3.88
2023-04-09T03:13:37.323Z,3.88
2023-04-09T03:13:53.268Z,3.88
2023-04-09T03:14:25.132Z,3.88
2023-04-09T03:14:41.213Z,3.88
2023-04-09T03:15:13.899Z,3.88
2023-04-09T03:15:45.069Z,3.88
2023-04-09T03:16:17.266Z,3.88
2023-04-09T03:16:49.060Z,3.88
2023-04-09T03:17:21.123Z,3.88
2023-04-09T03:17:53.172Z,3.88
2023-04-09T03:18:09.170Z,3.88
2023-04-09T03:18:40.853Z,3.88
2023-04-09T03:19:25.069Z,3.88
2023-04-09T03:19:56.910Z,3.88
2023-04-09T03:20:29.244Z,3.77
2023-04-09T03:21:00.942Z,3.77
2023-04-09T03:21:32.869Z,3.77
2023-04-09T03:22:05.141Z,3.77
2023-04-09T03:22:37.273Z,3.77
2023-04-09T03:22:53.074Z,3.77
2023-04-09T03:23:36.846Z,3.77
2023-04-09T03:24:08.832Z,3.77
2023-04-09T03:24:40.723Z,3.77
2023-04-09T03:25:12.769Z,3.77
2023-04-09T03:25:44.662Z,3.77
2023-04-09T03:26:16.710Z,3.77
2023-04-09T03:26:48.506Z,3.77
2023-04-09T03:27:20.497Z,3.77
2023-04-09T03:27:52.765Z,3.77
2023-04-09T03:28:24.690Z,3.77
2023-04-09T03:28:56.405Z,3.77
2023-04-09T03:29:28.836Z,3.77
2023-04-09T03:30:01.495Z,3.77
2023-04-09T03:30:32.410Z,3.77
2023-04-09T03:31:05.051Z,3.77
2023-04-09T03:31:36.537Z,3.77
2023-04-09T03:32:08.608Z,3.77
2023-04-09T03:32:40.569Z,3.77
2023-04-09T03:33:12.193Z,3.77
2023-04-09T03:33:44.244Z,3.77
2023-04-09T03:34:16.340Z,3.77
2023-04-09T03:34:48.569Z,3.88
2023-04-09T03:35:20.405Z,3.88
2023-04-09T03:35:52.403Z,3.88
2023-04-09T03:36:08.577Z,3.88
2023-04-09T03:36:40.339Z,3.88
2023-04-09T03:37:24.289Z,3.88
2023-04-09T03:37:56.215Z,3.88
2023-04-09T03:38:12.195Z,3.88
2023-04-09T03:38:44.186Z,3.88
2023-04-09T03:39:28.326Z,3.88
2023-04-09T03:40:00.476Z,3.88
2023-04-09T03:40:32.064Z,3.88
2023-04-09T03:41:04.576Z,3.88
2023-04-09T03:41:35.908Z,3.88
2023-04-09T03:42:08.315Z,3.77
2023-04-09T03:42:40.029Z,3.77
2023-04-09T03:43:11.919Z,3.77
2023-04-09T03:43:43.926Z,3.77
2023-04-09T03:44:15.987Z,3.77
2023-04-09T03:44:47.892Z,3.77
2023-04-09T03:45:20.249Z,3.77
2023-04-09T03:45:51.868Z,3.77
2023-04-09T03:46:24.019Z,3.77
2023-04-09T03:46:55.738Z,3.77
2023-04-09T03:47:27.891Z,3.77
2023-04-09T03:47:59.700Z,3.77
2023-04-09T03:48:31.705Z,3.77
2023-04-09T03:49:04.241Z,3.77
2023-04-09T03:49:35.660Z,3.77
2023-04-09T03:50:08.445Z,3.72
2023-04-09T03:50:39.803Z,3.72
2023-04-09T03:51:11.498Z,3.72
2023-04-09T03:51:43.558Z,3.72
2023-04-09T03:52:15.550Z,3.72
2023-04-09T03:52:47.803Z,3.72
2023-04-09T03:53:19.430Z,3.72
2023-04-09T03:53:51.539Z,3.72
2023-04-09T03:54:23.490Z,3.72
2023-04-09T03:54:55.498Z,3.72
2023-04-09T03:55:27.763Z,3.72
2023-04-09T03:55:59.426Z,3.72
2023-04-09T03:56:31.541Z,3.72
2023-04-09T03:57:04.087Z,3.72
2023-04-09T03:57:35.246Z,3.72
2023-04-09T03:57:51.546Z,3.72
2023-04-09T03:58:35.385Z,3.72
2023-04-09T03:59:07.674Z,3.72
2023-04-09T03:59:39.331Z,3.72
2023-04-09T04:00:12.277Z,3.72
2023-04-09T04:00:43.171Z,3.72
2023-04-09T04:01:15.114Z,3.72
2023-04-09T04:01:47.437Z,3.72
2023-04-09T04:02:19.139Z,3.72
2023-04-09T04:02:51.269Z,3.72
2023-04-09T04:03:23.361Z,3.72
2023-04-09T04:03:55.058Z,3.72
2023-04-09T04:04:27.224Z,3.72
2023-04-09T04:04:59.321Z,3.72
2023-04-09T04:05:31.260Z,3.77
2023-04-09T04:06:03.293Z,3.77
2023-04-09T04:06:34.830Z,3.77
2023-04-09T04:07:07.386Z,3.77
2023-04-09T04:07:39.167Z,3.77
2023-04-09T04:08:11.005Z,3.77
2023-04-09T04:08:42.886Z,3.77
2023-04-09T04:09:14.758Z,3.77
2023-04-09T04:09:46.999Z,3.77
2023-04-09T04:10:19.330Z,3.77
2023-04-09T04:10:50.716Z,3.77
2023-04-09T04:11:07.113Z,3.77
2023-04-09T04:11:38.776Z,3.77
2023-04-09T04:12:22.803Z,3.77
2023-04-09T04:12:54.850Z,3.77
2023-04-09T04:13:26.765Z,3.77
2023-04-09T04:13:58.704Z,3.77
2023-04-09T04:14:30.728Z,3.77
2023-04-09T04:15:05.409Z,3.77
2023-04-09T04:15:34.516Z,3.77
2023-04-09T04:15:50.980Z,3.77
2023-04-09T04:16:34.787Z,3.77
2023-04-09T04:17:06.746Z,3.77
2023-04-09T04:17:38.867Z,3.77
2023-04-09T04:18:10.508Z,3.77
2023-04-09T04:18:42.357Z,3.77
2023-04-09T04:19:14.594Z,3.77
2023-04-09T04:19:46.355Z,3.77
2023-04-09T04:20:18.683Z,3.77
2023-04-09T04:20:50.472Z,3.77
2023-04-09T04:21:22.421Z,3.72
2023-04-09T04:21:54.218Z,3.72
2023-04-09T04:22:26.469Z,3.72
2023-04-09T04:22:58.506Z,3.72
2023-04-09T04:23:30.259Z,3.72
2023-04-09T04:24:02.453Z,3.72
2023-04-09T04:24:34.154Z,3.72
2023-04-09T04:25:06.515Z,3.72
2023-04-09T04:25:38.506Z,3.72
2023-04-09T04:26:10.103Z,3.72
2023-04-09T04:26:41.998Z,3.72
2023-04-09T04:27:14.113Z,3.72
2023-04-09T04:27:46.091Z,3.72
2023-04-09T04:28:18.198Z,3.72
2023-04-09T04:28:50.217Z,3.72
2023-04-09T04:29:22.111Z,3.72
2023-04-09T04:29:54.090Z,3.72
2023-04-09T04:30:26.297Z,3.72
2023-04-09T04:30:58.071Z,3.72
2023-04-09T04:31:29.930Z,3.72
2023-04-09T04:32:02.241Z,3.72
2023-04-09T04:32:33.866Z,3.72
2023-04-09T04:32:50.095Z,3.72
2023-04-09T04:33:33.888Z,3.72
2023-04-09T04:34:05.930Z,3.72
2023-04-09T04:34:38.340Z,3.72
2023-04-09T04:35:09.902Z,3.72
2023-04-09T04:35:41.844Z,3.72
2023-04-09T04:36:13.819Z,3.72
2023-04-09T04:36:45.848Z,3.72
2023-04-09T04:37:17.842Z,3.72
2023-04-09T04:37:49.861Z,3.72
2023-04-09T04:38:21.690Z,3.61
2023-04-09T04:38:54.065Z,3.61
2023-04-09T04:39:25.725Z,3.61
2023-04-09T04:39:57.793Z,3.61
2023-04-09T04:40:29.754Z,3.61
2023-04-09T04:41:02.166Z,3.61
2023-04-09T04:41:33.335Z,3.61
2023-04-09T04:41:49.780Z,3.50
2023-04-09T04:42:21.390Z,3.50
2023-04-09T04:42:38.122Z,3.50
2023-04-09T04:43:09.558Z,3.50
2023-04-09T04:43:41.549Z,3.50
2023-04-09T04:44:13.458Z,3.50
2023-04-09T04:44:45.319Z,3.50
2023-04-09T04:45:19.325Z,3.50
2023-04-09T04:45:49.549Z,3.50
2023-04-09T04:46:05.524Z,3.50
2023-04-09T04:46:37.609Z,3.50
2023-04-09T04:47:21.289Z,3.50
2023-04-09T04:47:53.533Z,3.50
2023-04-09T04:48:25.263Z,3.50
2023-04-09T04:48:57.305Z,3.50
2023-04-09T04:49:29.222Z,3.50
2023-04-09T04:50:03.818Z,3.61
2023-04-09T04:50:33.196Z,3.61
2023-04-09T04:50:49.747Z,3.61
2023-04-09T04:51:33.290Z,3.61
2023-04-09T04:52:05.340Z,3.61
2023-04-09T04:52:37.747Z,3.61
2023-04-09T04:53:09.264Z,3.61
2023-04-09T04:53:41.208Z,3.61
2023-04-09T04:54:13.338Z,3.61
2023-04-09T04:54:45.191Z,3.61
2023-04-09T04:55:17.353Z,3.61
2023-04-09T04:55:49.131Z,3.61
2023-04-09T04:56:21.216Z,3.61
2023-04-09T04:56:53.160Z,3.61
2023-04-09T04:57:24.897Z,3.61
2023-04-09T04:57:57.173Z,3.61
2023-04-09T04:58:29.062Z,3.61
2023-04-09T04:59:01.356Z,3.61
2023-04-09T04:59:32.849Z,3.61
2023-04-09T04:59:49.195Z,3.61
2023-04-09T05:00:21.167Z,3.61
2023-04-09T05:00:37.249Z,3.61
2023-04-09T05:01:09.442Z,3.61
2023-04-09T05:01:40.852Z,3.61
2023-04-09T05:02:12.708Z,3.61
2023-04-09T05:02:44.991Z,3.61
2023-04-09T05:03:17.099Z,3.61
2023-04-09T05:03:49.026Z,3.61
2023-04-09T05:04:05.138Z,3.61
2023-04-09T05:04:36.619Z,3.61
2023-04-09T05:05:21.058Z,3.61
2023-04-09T05:05:52.947Z,3.61
2023-04-09T05:06:24.698Z,3.61
2023-04-09T05:06:56.659Z,3.61
2023-04-09T05:07:28.881Z,3.61
2023-04-09T05:08:00.557Z,3.61
2023-04-09T05:08:32.415Z,3.61
2023-04-09T05:09:04.747Z,3.50
2023-04-09T05:09:36.603Z,3.50
2023-04-09T05:10:11.459Z,3.50
2023-04-09T05:10:40.497Z,3.50
2023-04-09T05:11:12.454Z,3.50
2023-04-09T05:11:44.517Z,3.72
2023-04-09T05:12:16.584Z,3.72
2023-04-09T05:12:48.477Z,3.61
2023-04-09T05:13:04.677Z,3.72
2023-04-09T05:13:48.502Z,3.77
2023-04-09T05:14:20.448Z,3.77
2023-04-09T05:14:52.264Z,4.00
2023-04-09T05:15:24.821Z,4.00
2023-04-09T05:15:56.284Z,4.00
2023-04-09T05:16:28.388Z,4.11
2023-04-09T05:17:00.309Z,4.22
2023-04-09T05:17:32.269Z,4.22
2023-04-09T05:17:48.598Z,4.22
2023-04-09T05:18:19.991Z,4.27
2023-04-09T05:18:36.235Z,4.27
2023-04-09T05:19:08.640Z,4.22
2023-04-09T05:19:40.033Z,4.22
2023-04-09T05:20:12.340Z,4.22
2023-04-09T05:20:44.093Z,4.22
2023-04-09T05:21:16.017Z,4.22
2023-04-09T05:21:48.258Z,4.22
2023-04-09T05:22:04.318Z,4.22
2023-04-09T05:22:35.886Z,4.22
2023-04-09T05:23:20.068Z,4.11
2023-04-09T05:23:51.743Z,4.11
2023-04-09T05:24:23.955Z,4.00
2023-04-09T05:24:55.873Z,4.00
2023-04-09T05:25:28.297Z,4.00
2023-04-09T05:25:59.850Z,4.00
2023-04-09T05:26:31.777Z,4.00
2023-04-09T05:26:48.434Z,4.00
2023-04-09T05:27:31.766Z,4.00
2023-04-09T05:28:04.271Z,4.00
2023-04-09T05:28:35.577Z,4.00
2023-04-09T05:29:07.910Z,4.00
2023-04-09T05:29:39.628Z,4.00
2023-04-09T05:30:12.926Z,4.00
2023-04-09T05:30:43.804Z,4.00
2023-04-09T05:31:15.665Z,4.00
2023-04-09T05:31:47.955Z,4.00
2023-04-09T05:32:19.772Z,4.11
2023-04-09T05:32:51.608Z,4.11
2023-04-09T05:33:23.660Z,4.11
2023-04-09T05:33:55.563Z,4.11
2023-04-09T05:34:27.672Z,4.11
2023-04-09T05:34:59.483Z,4.11
2023-04-09T05:35:31.697Z,4.11
2023-04-09T05:35:47.986Z,4.11
2023-04-09T05:36:19.277Z,4.11
2023-04-09T05:36:35.413Z,4.11
2023-04-09T05:37:07.671Z,4.11
2023-04-09T05:37:39.284Z,4.11
2023-04-09T05:38:11.359Z,4.11
2023-04-09T05:38:43.307Z,4.11
2023-04-09T05:39:15.307Z,4.11
2023-04-09T05:39:47.514Z,4.11
2023-04-09T05:40:04.244Z,4.22
2023-04-09T05:40:35.170Z,4.22
2023-04-09T05:41:19.295Z,4.22
2023-04-09T05:41:51.402Z,4.27
2023-04-09T05:42:23.223Z,4.38
2023-04-09T05:42:55.104Z,4.38
2023-04-09T05:43:27.350Z,4.38
2023-04-09T05:44:00.830Z,4.50
2023-04-09T05:44:30.945Z,4.61
2023-04-09T05:44:47.645Z,4.61
2023-04-09T05:45:32.658Z,4.61
2023-04-09T05:46:03.780Z,4.72
2023-04-09T05:46:35.051Z,4.72
2023-04-09T05:47:07.219Z,4.61
2023-04-09T05:47:39.387Z,4.50
2023-04-09T05:48:11.107Z,4.61
2023-04-09T05:48:42.902Z,4.61
2023-04-09T05:49:14.865Z,4.72
2023-04-09T05:49:47.013Z,4.72
2023-04-09T05:50:19.162Z,4.77
2023-04-09T05:50:54.407Z,5.00
2023-04-09T05:51:22.751Z,5.11
2023-04-09T05:51:54.852Z,5.22
2023-04-09T05:52:27.038Z,5.22
2023-04-09T05:52:58.995Z,5.22
2023-04-09T05:53:30.753Z,5.22
2023-04-09T05:54:03.436Z,5.22
2023-04-09T05:54:34.571Z,5.27
2023-04-09T05:55:06.991Z,5.22
2023-04-09T05:55:38.868Z,5.38
2023-04-09T05:56:10.615Z,5.11
2023-04-09T05:56:42.551Z,5.00
2023-04-09T05:57:14.717Z,5.27
2023-04-09T05:57:47.155Z,5.38
2023-04-09T05:58:18.784Z,5.27
2023-04-09T05:58:34.629Z,5.27
2023-04-09T05:59:18.922Z,5.61
2023-04-09T05:59:50.655Z,5.61
2023-04-09T06:00:22.780Z,5.50
2023-04-09T06:00:54.652Z,5.61
2023-04-09T06:01:26.492Z,5.38
2023-04-09T06:01:58.341Z,5.27
2023-04-09T06:02:30.364Z,5.50
2023-04-09T06:02:46.612Z,5.50
2023-04-09T06:03:30.454Z,5.27
2023-04-09T06:04:03.603Z,5.50
2023-04-09T06:04:34.206Z,5.27
2023-04-09T06:05:06.339Z,5.11
2023-04-09T06:05:38.520Z,5.27
2023-04-09T06:06:10.288Z,5.27
2023-04-09T06:06:41.940Z,5.27
2023-04-09T06:07:14.092Z,5.27
2023-04-09T06:07:46.014Z,5.27
2023-04-09T06:08:18.522Z,5.11
2023-04-09T06:08:49.991Z,5.11
2023-04-09T06:09:22.007Z,5.22
2023-04-09T06:09:54.102Z,5.38
2023-04-09T06:10:26.324Z,5.22
2023-04-09T06:10:57.882Z,5.27
2023-04-09T06:11:29.984Z,5.27
2023-04-09T06:12:02.463Z,5.38
2023-04-09T06:12:33.997Z,5.61
2023-04-09T06:13:05.886Z,5.22
2023-04-09T06:13:38.148Z,5.22
2023-04-09T06:14:10.828Z,5.38
2023-04-09T06:14:41.887Z,5.38
2023-04-09T06:15:15.138Z,5.22
2023-04-09T06:15:45.794Z,5.22
2023-04-09T06:16:02.358Z,5.22
2023-04-09T06:16:33.622Z,5.11
2023-04-09T06:17:17.887Z,5.22
2023-04-09T06:17:33.759Z,5.50
2023-04-09T06:18:18.138Z,5.27
2023-04-09T06:18:49.581Z,5.50
2023-04-09T06:19:21.881Z,5.50
2023-04-09T06:19:53.675Z,5.38
2023-04-09T06:20:26.944Z,5.38
2023-04-09T06:20:57.811Z,5.38
2023-04-09T06:21:29.753Z,5.38
2023-04-09T06:22:01.679Z,5.27
2023-04-09T06:22:33.523Z,5.11
2023-04-09T06:23:05.575Z,5.27
2023-04-09T06:23:37.468Z,5.38
2023-04-09T06:24:09.451Z,5.38
2023-04-09T06:24:41.520Z,5.50
2023-04-09T06:25:13.648Z,5.27
2023-04-09T06:25:45.301Z,5.27
2023-04-09T06:26:01.460Z,5.27
2023-04-09T06:26:45.247Z,5.38
2023-04-09T06:27:01.499Z,5.27
2023-04-09T06:27:45.249Z,5.38
2023-04-09T06:28:17.736Z,5.38
2023-04-09T06:28:49.347Z,5.00
2023-04-09T06:29:23.757Z,4.77
2023-04-09T06:29:53.352Z,4.88
2023-04-09T06:30:25.641Z,5.00
2023-04-09T06:30:57.282Z,4.77
2023-04-09T06:31:29.209Z,4.77
2023-04-09T06:32:01.256Z,4.77
2023-04-09T06:32:37.685Z,4.77
2023-04-09T06:33:05.118Z,4.77
2023-04-09T06:33:37.196Z,4.61
2023-04-09T06:34:09.310Z,4.61
2023-04-09T06:34:41.076Z,4.61
2023-04-09T06:35:13.057Z,4.61
2023-04-09T06:35:44.994Z,4.72
2023-04-09T06:36:17.223Z,4.61
2023-04-09T06:36:49.119Z,4.61
2023-04-09T06:37:20.820Z,4.50
2023-04-09T06:37:52.751Z,4.38
2023-04-09T06:38:24.930Z,4.38
2023-04-09T06:38:57.095Z,4.61
2023-04-09T06:39:28.773Z,4.22
2023-04-09T06:40:01.707Z,4.61
2023-04-09T06:40:17.085Z,4.50
2023-04-09T06:40:49.151Z,4.50
2023-04-09T06:41:32.792Z,4.38
2023-04-09T06:42:04.915Z,4.38
2023-04-09T06:42:36.681Z,4.61
2023-04-09T06:43:08.751Z,4.77
2023-04-09T06:43:40.614Z,4.61
2023-04-09T06:44:12.612Z,4.61
2023-04-09T06:44:44.599Z,4.61
2023-04-09T06:45:20.502Z,4.61
2023-04-09T06:45:48.797Z,4.61
2023-04-09T06:46:20.586Z,4.72
2023-04-09T06:46:52.469Z,4.38
2023-04-09T06:47:24.431Z,4.61
2023-04-09T06:47:56.656Z,4.72
2023-04-09T06:48:28.481Z,4.61
2023-04-09T06:49:00.389Z,4.77
2023-04-09T06:49:32.345Z,4.77
2023-04-09T06:50:05.162Z,4.88
2023-04-09T06:50:36.317Z,4.88
2023-04-09T06:51:08.572Z,5.11
2023-04-09T06:51:40.377Z,4.88
2023-04-09T06:52:12.350Z,4.88
2023-04-09T06:52:43.980Z,4.88
2023-04-09T06:53:00.263Z,4.77
2023-04-09T06:53:32.234Z,5.00
2023-04-09T06:54:16.310Z,5.00
2023-04-09T06:54:48.610Z,4.77
2023-04-09T06:55:20.330Z,4.88
2023-04-09T06:55:52.355Z,4.88
2023-04-09T06:56:24.097Z,5.00